createdAt,value
2024-02-21T00:00:16.185Z,11.07
2024-02-21T00:02:42.817Z,11.27
2024-02-21T00:05:09.821Z,10.63
2024-02-21T00:07:36.549Z,11.15
2024-02-21T00:10:04.410Z,11.00
2024-02-21T00:12:30.981Z,10.75
2024-02-21T00:14:58.045Z,10.02
2024-02-21T00:17:27.241Z,10.60
2024-02-21T00:19:54.000Z,10.00
2024-02-21T00:22:20.651Z,10.57
2024-02-21T00:24:47.219Z,10.30
2024-02-21T00:27:13.979Z,10.65
2024-02-21T00:29:40.624Z,10.30
2024-02-21T00:32:07.411Z,10.73
2024-02-21T00:34:36.500Z,10.30
2024-02-21T00:37:03.268Z,9.45
2024-02-21T00:39:29.824Z,10.13
2024-02-21T00:41:56.596Z,10.25
2024-02-21T00:44:23.363Z,9.90
2024-02-21T00:46:50.153Z,10.88
2024-02-21T00:49:17.055Z,10.80
2024-02-21T00:51:43.633Z,10.13
2024-02-21T00:54:10.349Z,10.10
2024-02-21T00:56:37.140Z,9.35
2024-02-21T00:59:03.844Z,9.45
2024-02-21T01:01:30.743Z,10.30
2024-02-21T01:03:57.847Z,10.90
2024-02-21T01:06:24.774Z,9.43
2024-02-21T01:08:51.610Z,10.38
2024-02-21T01:11:18.534Z,9.93
2024-02-21T01:13:45.476Z,10.35
2024-02-21T01:16:12.264Z,10.65
2024-02-21T01:18:40.903Z,10.52
2024-02-21T01:21:08.922Z,9.65
2024-02-21T01:23:36.645Z,10.43
2024-02-21T01:26:04.642Z,10.88
2024-02-21T01:28:31.861Z,9.63
2024-02-21T01:30:58.655Z,9.77
2024-02-21T01:33:25.452Z,10.75
2024-02-21T01:35:52.425Z,9.65
2024-02-21T01:38:19.333Z,9.73
2024-02-21T01:40:46.268Z,10.25
2024-02-21T01:43:21.657Z,9.63
2024-02-21T01:45:51.708Z,9.05
2024-02-21T01:48:19.520Z,10.25
2024-02-21T01:50:47.812Z,8.90
2024-02-21T01:53:20.540Z,8.82
2024-02-21T01:55:47.930Z,9.52
2024-02-21T01:58:15.932Z,9.73
2024-02-21T02:00:44.270Z,9.43
2024-02-21T02:03:18.179Z,8.65
2024-02-21T02:05:49.565Z,8.57
2024-02-21T02:08:25.597Z,9.30
2024-02-21T02:10:53.331Z,8.18
2024-02-21T02:13:20.212Z,8.50
2024-02-21T02:15:49.552Z,7.88
2024-02-21T02:18:18.197Z,8.70
2024-02-21T02:20:45.825Z,7.88
2024-02-21T02:23:27.996Z,7.60
2024-02-21T02:25:55.072Z,6.50
2024-02-21T02:28:22.429Z,8.55
2024-02-21T02:30:49.704Z,8.23
2024-02-21T02:33:18.937Z,7.47
2024-02-21T02:35:46.573Z,6.82
2024-02-21T02:38:14.325Z,7.65
2024-02-21T02:40:42.426Z,6.78
2024-02-21T02:43:09.629Z,6.88
2024-02-21T02:45:36.335Z,6.45
2024-02-21T02:48:03.329Z,6.40
2024-02-21T02:50:30.127Z,6.72
2024-02-21T02:52:57.049Z,6.53
2024-02-21T02:55:24.256Z,6.25
2024-02-21T02:57:51.015Z,5.93
2024-02-21T03:00:18.443Z,6.13
2024-02-21T03:02:47.637Z,6.68
2024-02-21T03:05:19.935Z,6.25
2024-02-21T03:07:47.997Z,6.03
2024-02-21T03:10:18.226Z,5.88
2024-02-21T03:12:45.403Z,6.22
2024-02-21T03:15:13.450Z,5.45
2024-02-21T03:17:40.669Z,6.00
2024-02-21T03:20:11.442Z,6.28
2024-02-21T03:22:39.181Z,6.03
2024-02-21T03:25:07.577Z,6.35
2024-02-21T03:27:34.588Z,5.38
2024-02-21T03:30:01.347Z,5.65
2024-02-21T03:32:29.542Z,6.00
2024-02-21T03:34:56.450Z,6.10
2024-02-21T03:37:23.336Z,5.88
2024-02-21T03:39:50.029Z,5.95
2024-02-21T03:42:16.602Z,5.45
2024-02-21T03:44:43.253Z,5.75
2024-02-21T03:47:11.726Z,6.32
2024-02-21T03:49:38.988Z,5.90
2024-02-21T03:52:05.821Z,5.60
2024-02-21T03:54:33.437Z,5.80
2024-02-21T03:57:00.165Z,6.43
2024-02-21T03:59:26.935Z,5.03
2024-02-21T04:01:54.500Z,5.70
2024-02-21T04:04:22.153Z,5.95
2024-02-21T04:06:49.625Z,5.13
2024-02-21T04:09:16.699Z,5.55
2024-02-21T04:11:43.537Z,5.40
2024-02-21T04:14:12.369Z,4.85
2024-02-21T04:16:40.089Z,5.75
2024-02-21T04:19:06.836Z,5.38
2024-02-21T04:21:33.654Z,5.10
2024-02-21T04:24:00.673Z,5.13
2024-02-21T04:26:27.359Z,5.47
2024-02-21T04:28:54.214Z,5.45
2024-02-21T04:31:20.953Z,4.75
2024-02-21T04:33:47.818Z,5.22
2024-02-21T04:36:14.501Z,5.35
2024-02-21T04:38:41.949Z,5.15
2024-02-21T04:41:09.174Z,5.53
2024-02-21T04:43:36.174Z,5.00
2024-02-21T04:46:03.103Z,5.55
2024-02-21T04:48:29.841Z,5.70
2024-02-21T04:50:56.639Z,5.47
2024-02-21T04:53:23.376Z,6.05
2024-02-21T04:55:50.007Z,6.47
2024-02-21T04:58:16.808Z,5.50
2024-02-21T05:00:43.509Z,5.90
2024-02-21T05:03:10.272Z,5.70
2024-02-21T05:05:37.200Z,5.90
2024-02-21T05:08:04.386Z,5.53
2024-02-21T05:10:31.292Z,5.25
2024-02-21T05:12:58.772Z,6.05
2024-02-21T05:15:25.389Z,6.00
2024-02-21T05:17:52.131Z,6.22
2024-02-21T05:20:18.866Z,6.32
2024-02-21T05:22:45.592Z,6.43
2024-02-21T05:25:12.265Z,6.05
2024-02-21T05:27:39.674Z,5.25
2024-02-21T05:30:07.815Z,5.68
2024-02-21T05:32:34.622Z,5.63
2024-02-21T05:35:01.820Z,5.43
2024-02-21T05:37:28.652Z,6.07
2024-02-21T05:39:55.366Z,5.40
2024-02-21T05:42:21.969Z,5.90
2024-02-21T05:44:48.702Z,6.10
2024-02-21T05:47:16.746Z,6.40
2024-02-21T05:49:43.886Z,6.43
2024-02-21T05:52:10.948Z,7.50
2024-02-21T05:54:41.054Z,7.38
2024-02-21T05:57:09.026Z,7.15
2024-02-21T05:59:37.347Z,7.22
2024-02-21T06:02:05.337Z,7.63
2024-02-21T06:04:33.278Z,7.32
2024-02-21T06:07:00.511Z,7.28
2024-02-21T06:09:27.157Z,7.85
2024-02-21T06:11:53.820Z,7.78
2024-02-21T06:14:21.106Z,6.82
2024-02-21T06:16:47.836Z,7.82
2024-02-21T06:19:14.707Z,8.48
2024-02-21T06:21:41.537Z,7.57
2024-02-21T06:24:08.241Z,7.97
2024-02-21T06:26:34.986Z,8.00
2024-02-21T06:29:02.842Z,7.47
2024-02-21T06:31:30.292Z,8.60
2024-02-21T06:33:57.204Z,8.60
2024-02-21T06:36:24.158Z,8.45
2024-02-21T06:38:50.778Z,7.97
2024-02-21T06:41:19.795Z,7.82
2024-02-21T06:43:50.156Z,7.70
2024-02-21T06:46:27.573Z,8.10
2024-02-21T06:48:54.665Z,8.27
2024-02-21T06:51:21.535Z,9.02
2024-02-21T06:53:48.201Z,7.53
2024-02-21T06:56:15.121Z,7.57
2024-02-21T06:58:41.855Z,7.30
2024-02-21T07:01:09.338Z,8.55
2024-02-21T07:03:36.085Z,6.85
2024-02-21T07:06:02.975Z,7.90
2024-02-21T07:08:30.175Z,7.20
2024-02-21T07:10:57.016Z,7.20
2024-02-21T07:13:24.046Z,7.50
2024-02-21T07:15:50.939Z,7.57
2024-02-21T07:18:18.076Z,7.55
2024-02-21T07:20:44.794Z,6.95
2024-02-21T07:23:11.451Z,7.82
2024-02-21T07:25:38.192Z,8.15
2024-02-21T07:28:05.273Z,7.47
2024-02-21T07:30:32.013Z,7.07
2024-02-21T07:32:58.814Z,8.07
2024-02-21T07:35:25.584Z,7.47
2024-02-21T07:37:52.244Z,7.75
2024-02-21T07:40:19.329Z,7.50
2024-02-21T07:42:49.050Z,8.00
2024-02-21T07:45:19.393Z,7.20
2024-02-21T07:47:46.184Z,7.63
2024-02-21T07:50:13.064Z,7.50
2024-02-21T07:52:39.850Z,7.50
2024-02-21T07:55:06.676Z,8.95
2024-02-21T07:57:33.332Z,7.93
2024-02-21T07:59:59.940Z,8.82
2024-02-21T08:02:26.552Z,8.02
2024-02-21T08:04:53.215Z,9.45
2024-02-21T08:07:19.954Z,8.30
2024-02-21T08:09:46.625Z,7.80
2024-02-21T08:12:13.321Z,8.68
2024-02-21T08:14:39.932Z,8.30
2024-02-21T08:17:06.857Z,8.15
2024-02-21T08:19:33.692Z,7.88
2024-02-21T08:22:00.722Z,7.70
2024-02-21T08:24:28.370Z,8.48
2024-02-21T08:26:54.915Z,7.82
2024-02-21T08:29:21.668Z,7.57
2024-02-21T08:31:48.411Z,7.28
2024-02-21T08:34:15.242Z,7.38
2024-02-21T08:36:42.016Z,7.05
2024-02-21T08:39:10.939Z,7.07
2024-02-21T08:41:48.190Z,7.47
2024-02-21T08:44:29.034Z,6.55
2024-02-21T08:46:56.478Z,7.35
2024-02-21T08:49:23.867Z,6.50
2024-02-21T08:51:50.923Z,7.03
2024-02-21T08:54:18.008Z,5.82
2024-02-21T08:56:44.759Z,5.50
2024-02-21T08:59:11.830Z,6.32
2024-02-21T09:01:38.914Z,7.10
2024-02-21T09:04:06.485Z,6.13
2024-02-21T09:06:34.727Z,6.65
2024-02-21T09:09:01.840Z,5.63
2024-02-21T09:11:29.134Z,6.35
2024-02-21T09:13:56.491Z,5.05
2024-02-21T09:16:24.279Z,5.50
2024-02-21T09:18:51.219Z,5.57
2024-02-21T09:21:17.983Z,6.13
2024-02-21T09:23:46.800Z,5.15
2024-02-21T09:26:17.107Z,6.07
2024-02-21T09:28:46.889Z,5.57
2024-02-21T09:31:13.641Z,5.25
2024-02-21T09:33:40.260Z,5.18
2024-02-21T09:36:07.324Z,5.20
2024-02-21T09:38:33.972Z,5.10
2024-02-21T09:41:21.596Z,5.22
2024-02-21T09:43:51.305Z,5.13
2024-02-21T09:46:22.198Z,4.75
2024-02-21T09:49:21.160Z,5.07
2024-02-21T09:51:52.296Z,4.60
2024-02-21T09:54:19.702Z,5.30
2024-02-21T09:56:48.172Z,4.38
2024-02-21T09:59:18.279Z,4.43
2024-02-21T10:01:45.703Z,4.53
2024-02-21T10:04:12.769Z,4.43
2024-02-21T10:06:40.259Z,4.13
2024-02-21T10:09:08.101Z,4.50
2024-02-21T10:11:38.331Z,5.05
2024-02-21T10:14:06.952Z,5.90
2024-02-21T10:16:34.943Z,5.00
2024-02-21T10:19:01.932Z,5.63
2024-02-21T10:21:28.658Z,5.53
2024-02-21T10:23:55.576Z,5.68
2024-02-21T10:26:23.743Z,5.43
2024-02-21T10:28:52.772Z,6.07
2024-02-21T10:31:27.171Z,5.80
2024-02-21T10:33:58.257Z,5.68
2024-02-21T10:36:26.071Z,5.40
2024-02-21T10:38:53.606Z,6.35
2024-02-21T10:41:22.383Z,6.00
2024-02-21T10:43:55.166Z,6.07
2024-02-21T10:46:24.097Z,6.82
2024-02-21T10:49:14.112Z,5.78
2024-02-21T10:51:45.136Z,6.00
2024-02-21T10:54:42.106Z,5.82
2024-02-21T10:57:11.493Z,6.90
2024-02-21T10:59:40.336Z,6.40
2024-02-21T11:02:07.516Z,6.28
2024-02-21T11:04:39.801Z,6.55
2024-02-21T11:07:10.868Z,6.45
2024-02-21T11:09:38.732Z,6.10
2024-02-21T11:12:07.213Z,6.60
2024-02-21T11:14:36.659Z,6.78
2024-02-21T11:17:04.804Z,5.47
2024-02-21T11:19:32.508Z,6.28
2024-02-21T11:22:01.823Z,5.38
2024-02-21T11:24:34.655Z,5.88
2024-02-21T11:27:13.637Z,5.38
2024-02-21T11:29:47.630Z,5.80
2024-02-21T11:32:22.186Z,4.80
2024-02-21T11:35:07.063Z,5.97
2024-02-21T11:37:39.811Z,5.07
2024-02-21T11:40:12.281Z,5.38
2024-02-21T11:42:40.137Z,5.30
2024-02-21T11:45:07.804Z,5.53
2024-02-21T11:47:34.570Z,5.15
2024-02-21T11:50:01.671Z,4.90
2024-02-21T11:52:29.193Z,4.88
2024-02-21T11:55:05.627Z,5.20
2024-02-21T11:57:32.477Z,4.90
2024-02-21T12:00:00.631Z,4.78
2024-02-21T12:02:31.910Z,4.47
2024-02-21T12:04:58.816Z,4.32
2024-02-21T12:07:26.336Z,4.20
2024-02-21T12:09:53.703Z,5.13
2024-02-21T12:12:23.603Z,4.82
2024-02-21T12:15:00.275Z,4.97
2024-02-21T12:17:27.057Z,4.53
2024-02-21T12:19:53.869Z,4.93
2024-02-21T12:22:20.703Z,4.05
2024-02-21T12:24:48.712Z,4.00
2024-02-21T12:27:15.326Z,4.70
2024-02-21T12:29:42.061Z,3.67
2024-02-21T12:32:08.860Z,4.30
2024-02-21T12:34:44.253Z,3.97
2024-02-21T12:37:20.958Z,4.22
2024-02-21T12:39:48.412Z,4.20
2024-02-21T12:42:15.115Z,3.88
2024-02-21T12:44:43.149Z,4.20
2024-02-21T12:47:10.248Z,4.50
2024-02-21T12:49:37.171Z,4.53
2024-02-21T12:52:04.836Z,4.55
2024-02-21T12:54:32.542Z,4.50
2024-02-21T12:56:59.321Z,3.92
2024-02-21T12:59:27.073Z,4.38
2024-02-21T13:01:54.075Z,4.18
2024-02-21T13:04:22.788Z,3.30
2024-02-21T13:06:50.118Z,4.15
2024-02-21T13:09:16.918Z,3.50
2024-02-21T13:11:45.666Z,4.40
2024-02-21T13:14:12.775Z,3.70
2024-02-21T13:16:42.098Z,3.88
2024-02-21T13:19:09.781Z,4.35
2024-02-21T13:21:37.098Z,4.35
2024-02-21T13:24:04.177Z,4.13
2024-02-21T13:26:30.904Z,4.03
2024-02-21T13:28:57.654Z,4.25
2024-02-21T13:31:26.264Z,4.47
2024-02-21T13:33:53.409Z,4.38
2024-02-21T13:36:20.161Z,4.55
2024-02-21T13:38:48.003Z,3.90
2024-02-21T13:41:14.723Z,4.22
2024-02-21T13:43:41.602Z,4.18
2024-02-21T13:46:11.008Z,3.90
2024-02-21T13:48:38.294Z,4.13
2024-02-21T13:51:05.903Z,4.32
2024-02-21T13:53:32.547Z,3.90
2024-02-21T13:55:59.410Z,4.05
2024-02-21T13:58:27.441Z,4.00
2024-02-21T14:00:54.822Z,3.55
2024-02-21T14:03:21.875Z,4.53
2024-02-21T14:05:49.696Z,3.40
2024-02-21T14:08:16.765Z,3.40
2024-02-21T14:10:43.826Z,3.42
2024-02-21T14:13:10.617Z,2.63
2024-02-21T14:15:38.607Z,3.05
2024-02-21T14:18:10.259Z,3.17
2024-02-21T14:20:37.365Z,2.30
2024-02-21T14:25:32.244Z,2.40
2024-02-21T14:27:59.279Z,3.10
2024-02-21T14:30:26.563Z,2.58
2024-02-21T14:32:53.278Z,2.70
2024-02-21T14:35:20.086Z,3.05
2024-02-21T14:37:47.211Z,2.88
2024-02-21T14:40:14.086Z,2.85
2024-02-21T14:42:40.700Z,2.92
2024-02-21T14:45:07.912Z,3.40
2024-02-21T14:47:34.973Z,2.80
2024-02-21T14:50:03.831Z,2.72
2024-02-21T14:52:30.816Z,2.97
2024-02-21T14:54:57.718Z,3.00
2024-02-21T14:57:24.423Z,2.75
2024-02-21T14:59:53.851Z,3.47
2024-02-21T15:02:20.798Z,3.13
2024-02-21T15:04:47.519Z,2.78
2024-02-21T15:07:14.267Z,2.53
2024-02-21T15:09:40.908Z,2.88
2024-02-21T15:12:07.945Z,2.45
2024-02-21T15:14:34.607Z,3.28
2024-02-21T15:17:01.413Z,3.70
2024-02-21T15:19:28.376Z,4.35
2024-02-21T15:21:55.386Z,3.40
2024-02-21T15:24:22.139Z,3.58
2024-02-21T15:26:48.784Z,2.53
2024-02-21T15:29:15.454Z,2.70
2024-02-21T15:31:47.637Z,3.20
2024-02-21T15:34:16.705Z,6.07
2024-02-21T15:36:43.813Z,3.28
2024-02-21T15:39:11.821Z,3.10
2024-02-21T15:41:38.475Z,2.40
2024-02-21T15:44:05.600Z,3.30
2024-02-21T15:46:35.012Z,3.33
2024-02-21T15:49:01.954Z,3.45
2024-02-21T15:51:28.879Z,3.85
2024-02-21T15:53:55.564Z,3.70
2024-02-21T15:56:22.367Z,3.83
2024-02-21T15:58:49.570Z,3.92
2024-02-21T16:01:17.560Z,3.38
2024-02-21T16:03:44.249Z,3.00
2024-02-21T16:06:11.581Z,3.40
2024-02-21T16:08:41.863Z,4.38
2024-02-21T16:11:17.259Z,3.55
2024-02-21T16:13:44.775Z,3.35
2024-02-21T16:16:11.774Z,3.83
2024-02-21T16:18:38.888Z,3.25
2024-02-21T16:21:06.396Z,3.88
2024-02-21T16:23:33.602Z,3.42
2024-02-21T16:26:00.373Z,3.47
2024-02-21T16:28:27.106Z,3.55
2024-02-21T16:30:54.505Z,3.42
2024-02-21T16:33:21.180Z,4.28
2024-02-21T16:35:47.928Z,4.13
2024-02-21T16:38:14.605Z,4.53
2024-02-21T16:40:42.275Z,4.07
2024-02-21T16:43:08.874Z,5.03
2024-02-21T16:45:36.214Z,4.18
2024-02-21T16:48:07.290Z,4.32
2024-02-21T16:50:41.889Z,4.35
2024-02-21T16:53:16.053Z,3.20
2024-02-21T16:55:42.912Z,4.75
2024-02-21T16:58:10.806Z,4.53
2024-02-21T17:00:40.264Z,4.50
2024-02-21T17:03:07.296Z,4.88
2024-02-21T17:05:37.621Z,4.90
2024-02-21T17:08:08.390Z,4.45
2024-02-21T17:10:36.059Z,4.70
2024-02-21T17:13:05.311Z,4.95
2024-02-21T17:15:31.939Z,5.68
2024-02-21T17:18:00.061Z,4.97
2024-02-21T17:20:27.020Z,6.53
2024-02-21T17:22:53.913Z,5.57
2024-02-21T17:25:20.611Z,5.57
2024-02-21T17:27:47.324Z,5.78
2024-02-21T17:30:14.160Z,4.55
2024-02-21T17:32:40.875Z,5.22
2024-02-21T17:35:07.918Z,4.88
2024-02-21T17:37:37.429Z,5.50
2024-02-21T17:40:08.465Z,5.47
2024-02-21T17:42:35.849Z,4.55
2024-02-21T17:45:04.295Z,5.18
2024-02-21T17:47:31.959Z,5.18
2024-02-21T17:49:59.235Z,5.35
2024-02-21T17:52:28.319Z,6.20
2024-02-21T17:54:55.051Z,6.68
2024-02-21T17:57:22.387Z,5.85
2024-02-21T17:59:48.998Z,5.70
2024-02-21T18:02:20.953Z,5.38
2024-02-21T18:04:48.945Z,5.75
2024-02-21T18:07:16.023Z,4.68
2024-02-21T18:09:42.869Z,4.88
2024-02-21T18:12:09.757Z,5.18
2024-02-21T18:14:36.979Z,5.80
2024-02-21T18:17:04.099Z,5.72
2024-02-21T18:19:36.121Z,5.45
2024-02-21T18:22:03.505Z,5.53
2024-02-21T18:24:34.107Z,5.05
2024-02-21T18:27:01.273Z,5.10
2024-02-21T18:29:37.876Z,5.75
2024-02-21T18:32:09.633Z,5.13
2024-02-21T18:34:37.517Z,4.97
2024-02-21T18:37:04.668Z,5.47
2024-02-21T18:39:32.186Z,5.82
2024-02-21T18:41:58.964Z,6.07
2024-02-21T18:44:25.683Z,5.53
2024-02-21T18:46:52.501Z,6.18
2024-02-21T18:49:20.485Z,6.80
2024-02-21T18:51:47.638Z,5.00
2024-02-21T18:54:14.562Z,5.60
2024-02-21T18:56:46.225Z,5.43
2024-02-21T18:59:13.529Z,7.20
2024-02-21T19:01:40.840Z,6.30
2024-02-21T19:04:07.717Z,5.82
2024-02-21T19:06:35.187Z,10.10
2024-02-21T19:09:06.065Z,6.43
2024-02-21T19:11:33.205Z,6.20
2024-02-21T19:14:00.157Z,6.53
2024-02-21T19:16:27.835Z,6.25
2024-02-21T19:18:54.788Z,6.35
2024-02-21T19:21:21.633Z,6.72
2024-02-21T19:23:48.363Z,6.05
2024-02-21T19:26:16.428Z,7.32
2024-02-21T19:28:43.363Z,6.43
2024-02-21T19:31:10.233Z,6.40
2024-02-21T19:33:37.938Z,10.25
2024-02-21T19:36:05.438Z,11.13
2024-02-21T19:38:32.250Z,6.30
2024-02-21T19:40:59.041Z,8.07
2024-02-21T19:43:26.314Z,5.90
2024-02-21T19:45:53.557Z,5.72
2024-02-21T19:48:21.533Z,5.68
2024-02-21T19:50:49.233Z,5.05
2024-02-21T19:53:16.011Z,4.85
2024-02-21T19:55:43.007Z,5.53
2024-02-21T19:58:09.705Z,6.38
2024-02-21T20:00:37.102Z,5.00
2024-02-21T20:03:04.598Z,5.80
2024-02-21T20:05:32.733Z,5.30
2024-02-21T20:08:00.018Z,5.88
2024-02-21T20:10:27.729Z,4.82
2024-02-21T20:12:54.527Z,5.25
2024-02-21T20:15:24.008Z,5.03
2024-02-21T20:17:50.895Z,4.90
2024-02-21T20:20:17.977Z,5.07
2024-02-21T20:22:44.840Z,5.15
2024-02-21T20:25:15.775Z,5.43
2024-02-21T20:27:42.500Z,4.70
2024-02-21T20:30:09.404Z,4.82
2024-02-21T20:32:36.393Z,5.60
2024-02-21T20:35:04.531Z,4.85
2024-02-21T20:37:31.341Z,4.88
2024-02-21T20:39:58.486Z,4.63
2024-02-21T20:42:25.566Z,5.00
2024-02-21T20:44:52.415Z,4.60
2024-02-21T20:47:20.978Z,4.93
2024-02-21T20:49:50.196Z,4.43
2024-02-21T20:52:16.954Z,4.55
2024-02-21T20:54:43.643Z,4.55
2024-02-21T20:57:11.441Z,4.80
2024-02-21T20:59:38.584Z,4.60
2024-02-21T21:02:06.160Z,4.20
2024-02-21T21:04:33.497Z,4.10
2024-02-21T21:07:00.786Z,4.10
2024-02-21T21:09:27.641Z,3.53
2024-02-21T21:11:54.615Z,3.95
2024-02-21T21:14:21.572Z,4.10
2024-02-21T21:16:48.369Z,3.63
2024-02-21T21:19:15.774Z,4.03
2024-02-21T21:21:45.072Z,3.78
2024-02-21T21:24:13.727Z,3.47
2024-02-21T21:26:40.434Z,3.83
2024-02-21T21:29:07.311Z,3.40
2024-02-21T21:31:34.102Z,3.53
2024-02-21T21:34:01.919Z,3.78
2024-02-21T21:36:31.919Z,3.38
2024-02-21T21:38:59.768Z,3.00
2024-02-21T21:41:27.294Z,3.70
2024-02-21T21:43:54.032Z,3.50
2024-02-21T21:46:20.714Z,3.50
2024-02-21T21:48:47.378Z,2.58
2024-02-21T21:51:15.589Z,3.05
2024-02-21T21:53:44.758Z,2.92
2024-02-21T21:56:11.495Z,3.20
2024-02-21T21:58:38.340Z,2.92
2024-02-21T22:01:05.331Z,2.92
2024-02-21T22:03:32.020Z,2.70
2024-02-21T22:05:59.737Z,2.65
2024-02-21T22:08:26.479Z,2.90
2024-02-21T22:10:53.219Z,2.85
2024-02-21T22:13:20.063Z,2.70
2024-02-21T22:15:47.757Z,2.85
2024-02-21T22:18:14.724Z,2.60
2024-02-21T22:20:41.924Z,3.00
2024-02-21T22:23:10.600Z,2.20
2024-02-21T22:25:37.638Z,2.60
2024-02-21T22:28:04.717Z,2.33
2024-02-21T22:30:31.342Z,2.38
2024-02-21T22:32:57.991Z,2.17
2024-02-21T22:35:24.776Z,2.33
2024-02-21T22:37:51.966Z,2.33
2024-02-21T22:40:18.954Z,2.03
2024-02-21T22:42:45.921Z,2.10
2024-02-21T22:45:12.587Z,2.10
2024-02-21T22:47:39.226Z,2.35
2024-02-21T22:50:06.260Z,2.22
2024-02-21T22:52:33.066Z,2.00
2024-02-21T22:55:01.129Z,2.10
2024-02-21T22:57:27.818Z,2.28
2024-02-21T22:59:54.320Z,2.13
2024-02-21T23:02:21.075Z,2.20
2024-02-21T23:04:47.741Z,2.60
2024-02-21T23:07:15.473Z,2.13
2024-02-21T23:09:42.047Z,2.40
2024-02-21T23:12:09.340Z,2.13
2024-02-21T23:14:36.854Z,2.00
2024-02-21T23:17:03.646Z,1.90
2024-02-21T23:19:30.364Z,2.10
2024-02-21T23:21:57.201Z,1.80
2024-02-21T23:24:24.866Z,2.20
2024-02-21T23:26:51.539Z,2.35
2024-02-21T23:29:18.435Z,2.53
2024-02-21T23:31:45.211Z,2.20
2024-02-21T23:34:11.954Z,1.90
2024-02-21T23:36:38.660Z,2.15
2024-02-21T23:39:07.320Z,2.15
2024-02-21T23:41:33.996Z,2.33
2024-02-21T23:44:00.877Z,2.20
2024-02-21T23:46:27.809Z,2.42
2024-02-21T23:49:00.349Z,2.70
2024-02-21T23:53:54.523Z,3.00
2024-02-21T23:56:21.268Z,2.20
2024-02-21T23:58:48.077Z,2.70
